createdAt,value
2022-11-16T00:02:18.678Z,79.20
2022-11-16T00:04:45.552Z,79.20
2022-11-16T00:07:12.526Z,79.40
2022-11-16T00:09:39.558Z,80.20
2022-11-16T00:12:08.806Z,79.40
2022-11-16T00:14:36.467Z,79.40
2022-11-16T00:17:04.030Z,79.30
2022-11-16T00:19:30.962Z,80.20
2022-11-16T00:21:58.334Z,79.40
2022-11-16T00:24:25.302Z,79.40
2022-11-16T00:26:54.151Z,79.20
2022-11-16T00:29:24.062Z,79.10
2022-11-16T00:31:51.973Z,79.10
2022-11-16T00:34:19.176Z,79.20
2022-11-16T00:36:46.938Z,79.10
2022-11-16T00:39:15.462Z,79.10
2022-11-16T00:41:42.983Z,79.20
2022-11-16T00:44:10.822Z,79.10
2022-11-16T00:46:37.709Z,79.20
2022-11-16T00:49:06.169Z,79.20
2022-11-16T00:51:34.753Z,79.20
2022-11-16T00:54:02.959Z,79.20
2022-11-16T00:56:30.330Z,79.30
2022-11-16T00:58:57.242Z,79.30
2022-11-16T01:01:24.226Z,79.30
2022-11-16T01:03:51.546Z,79.30
2022-11-16T01:06:20.306Z,79.30
2022-11-16T01:08:47.253Z,79.20
2022-11-16T01:11:34.445Z,79.20
2022-11-16T01:14:06.559Z,79.20
2022-11-16T01:16:33.422Z,79.10
2022-11-16T01:19:00.519Z,79.10
2022-11-16T01:21:27.687Z,79.10
2022-11-16T01:23:55.748Z,79.10
2022-11-16T01:26:22.934Z,79.10
2022-11-16T01:28:50.069Z,79.10
2022-11-16T01:31:17.078Z,79.20
2022-11-16T01:33:43.946Z,79.20
2022-11-16T01:36:30.007Z,79.20
2022-11-16T01:38:59.359Z,79.20
2022-11-16T01:41:30.736Z,80.00
2022-11-16T01:44:06.885Z,79.10
2022-11-16T01:46:42.933Z,79.10
2022-11-16T01:49:17.025Z,79.10
2022-11-16T01:51:49.592Z,79.10
2022-11-16T01:54:16.998Z,79.20
2022-11-16T01:57:00.398Z,79.20
2022-11-16T01:59:38.654Z,79.10
2022-11-16T02:02:08.142Z,78.90
2022-11-16T02:04:35.795Z,78.80
2022-11-16T02:08:00.740Z,78.80
2022-11-16T02:10:46.517Z,78.40
2022-11-16T02:13:34.553Z,78.00
2022-11-16T02:16:10.746Z,77.90
2022-11-16T02:18:59.518Z,77.70
2022-11-16T02:21:38.972Z,77.70
2022-11-16T02:24:37.485Z,77.70
2022-11-16T02:27:16.033Z,77.60
2022-11-16T02:29:51.315Z,77.40
2022-11-16T02:32:31.451Z,77.20
2022-11-16T02:35:18.623Z,77.20
2022-11-16T02:37:56.455Z,77.20
2022-11-16T02:40:26.434Z,77.40
2022-11-16T02:43:01.151Z,77.30
2022-11-16T02:45:32.457Z,77.50
2022-11-16T02:48:05.801Z,77.40
2022-11-16T02:50:33.930Z,77.40
2022-11-16T02:53:00.787Z,77.20
2022-11-16T02:55:34.372Z,77.10
2022-11-16T02:58:03.690Z,76.90
2022-11-16T03:00:44.067Z,76.70
2022-11-16T03:03:29.512Z,76.70
2022-11-16T03:06:20.477Z,76.60
2022-11-16T03:09:05.900Z,76.60
2022-11-16T03:11:55.763Z,76.50
2022-11-16T03:14:26.035Z,76.30
2022-11-16T03:17:01.396Z,76.30
2022-11-16T03:19:43.561Z,76.10
2022-11-16T03:22:28.424Z,75.90
2022-11-16T03:24:55.888Z,75.60
2022-11-16T03:27:38.562Z,75.50
2022-11-16T03:30:10.541Z,75.40
2022-11-16T03:32:51.576Z,75.40
2022-11-16T03:35:33.034Z,75.40
2022-11-16T03:38:02.914Z,75.20
2022-11-16T03:40:33.603Z,75.20
2022-11-16T03:43:02.886Z,75.00
2022-11-16T03:45:31.331Z,74.90
2022-11-16T03:47:58.272Z,74.80
2022-11-16T03:50:26.193Z,74.60
2022-11-16T03:52:53.522Z,74.40
2022-11-16T03:55:20.592Z,74.30
2022-11-16T03:57:47.573Z,74.10
2022-11-16T04:00:15.519Z,73.90
2022-11-16T04:02:43.317Z,74.10
2022-11-16T04:05:35.219Z,73.80
2022-11-16T04:08:20.613Z,73.80
2022-11-16T04:11:06.073Z,73.70
2022-11-16T04:13:53.326Z,73.50
2022-11-16T04:16:39.261Z,73.40
2022-11-16T04:19:27.763Z,73.40
2022-11-16T04:22:24.311Z,73.20
2022-11-16T04:24:57.328Z,73.00
2022-11-16T04:27:47.629Z,73.10
2022-11-16T04:30:15.536Z,73.00
2022-11-16T04:33:01.736Z,72.90
2022-11-16T04:35:48.548Z,72.90
2022-11-16T04:38:15.524Z,72.80
2022-11-16T04:40:42.401Z,72.80
2022-11-16T04:43:11.673Z,72.90
2022-11-16T04:46:00.555Z,72.90
2022-11-16T04:48:35.399Z,73.00
2022-11-16T04:51:02.989Z,72.90
2022-11-16T04:53:30.191Z,72.80
2022-11-16T04:56:19.035Z,72.70
2022-11-16T04:58:46.727Z,72.70
2022-11-16T05:01:13.839Z,72.70
2022-11-16T05:03:40.767Z,72.70
2022-11-16T05:06:07.822Z,72.00
2022-11-16T05:08:35.069Z,72.90
2022-11-16T05:11:04.139Z,72.90
2022-11-16T05:13:31.069Z,72.70
2022-11-16T05:15:58.200Z,72.80
2022-11-16T05:18:25.970Z,72.80
2022-11-16T05:21:01.936Z,73.20
2022-11-16T05:23:52.752Z,73.50
2022-11-16T05:26:22.114Z,73.90
2022-11-16T05:28:49.898Z,74.20
2022-11-16T05:31:16.732Z,74.50
2022-11-16T05:33:44.388Z,74.70
2022-11-16T05:36:12.487Z,74.90
2022-11-16T05:38:39.676Z,74.90
2022-11-16T05:41:06.640Z,75.00
2022-11-16T05:43:33.738Z,75.00
2022-11-16T05:46:16.059Z,75.00
2022-11-16T05:48:43.277Z,74.80
2022-11-16T05:51:10.151Z,74.70
2022-11-16T05:53:36.982Z,74.70
2022-11-16T05:56:05.363Z,74.60
2022-11-16T05:58:35.506Z,74.50
2022-11-16T06:01:03.556Z,74.20
2022-11-16T06:03:31.142Z,74.20
2022-11-16T06:05:59.358Z,74.10
2022-11-16T06:08:28.185Z,74.00
2022-11-16T06:10:56.985Z,73.90
2022-11-16T06:13:24.472Z,73.80
2022-11-16T06:15:55.965Z,73.60
2022-11-16T06:18:23.019Z,73.60
2022-11-16T06:20:50.366Z,73.50
2022-11-16T06:23:20.237Z,73.30
2022-11-16T06:25:47.267Z,73.10
2022-11-16T06:28:14.468Z,72.70
2022-11-16T06:30:41.540Z,72.70
2022-11-16T06:33:08.988Z,72.30
2022-11-16T06:35:37.196Z,72.30
2022-11-16T06:38:04.876Z,72.20
2022-11-16T06:40:33.094Z,72.20
2022-11-16T06:43:01.676Z,72.90
2022-11-16T06:45:28.653Z,72.00
2022-11-16T06:47:57.903Z,71.90
2022-11-16T06:50:25.237Z,71.70
2022-11-16T06:52:52.422Z,71.70
2022-11-16T06:55:20.023Z,71.70
2022-11-16T06:57:48.027Z,71.70
2022-11-16T07:00:16.308Z,71.60
2022-11-16T07:02:43.817Z,71.80
2022-11-16T07:05:14.273Z,72.00
2022-11-16T07:07:42.152Z,72.10
2022-11-16T07:10:09.571Z,72.20
2022-11-16T07:12:36.924Z,72.30
2022-11-16T07:15:05.716Z,72.70
2022-11-16T07:17:34.893Z,73.00
2022-11-16T07:20:04.980Z,73.40
2022-11-16T07:22:33.245Z,73.70
2022-11-16T07:25:00.438Z,73.70
2022-11-16T07:27:27.308Z,74.70
2022-11-16T07:29:54.304Z,74.00
2022-11-16T07:32:39.999Z,74.00
2022-11-16T07:35:15.470Z,74.00
2022-11-16T07:37:42.693Z,74.10
2022-11-16T07:40:10.810Z,74.30
2022-11-16T07:42:38.865Z,74.50
2022-11-16T07:45:25.974Z,74.70
2022-11-16T07:47:58.193Z,74.70
2022-11-16T07:50:43.513Z,74.70
2022-11-16T07:53:11.115Z,74.80
2022-11-16T07:55:39.350Z,74.80
2022-11-16T07:58:06.269Z,74.70
2022-11-16T08:00:33.162Z,74.70
2022-11-16T08:03:08.563Z,74.60
2022-11-16T08:05:36.790Z,74.50
2022-11-16T08:08:04.043Z,74.50
2022-11-16T08:10:34.302Z,74.60
2022-11-16T08:13:01.201Z,74.60
2022-11-16T08:15:28.787Z,74.60
2022-11-16T08:17:58.543Z,74.60
2022-11-16T08:20:27.508Z,74.60
2022-11-16T08:22:59.390Z,74.70
2022-11-16T08:25:26.420Z,74.70
2022-11-16T08:27:53.495Z,74.80
2022-11-16T08:30:21.726Z,74.80
2022-11-16T08:32:48.893Z,74.80
2022-11-16T08:35:16.697Z,74.80
2022-11-16T08:37:44.898Z,74.80
2022-11-16T08:40:12.222Z,74.90
2022-11-16T08:42:43.607Z,75.50
2022-11-16T08:45:11.780Z,75.80
2022-11-16T08:47:38.727Z,75.70
2022-11-16T08:50:07.750Z,75.20
2022-11-16T08:52:34.620Z,74.50
2022-11-16T08:55:02.745Z,74.10
2022-11-16T08:57:30.195Z,73.40
2022-11-16T08:59:59.838Z,72.90
2022-11-16T09:02:26.696Z,72.70
2022-11-16T09:04:53.677Z,72.10
2022-11-16T09:07:21.484Z,71.80
2022-11-16T09:09:48.679Z,71.60
2022-11-16T09:12:15.660Z,70.80
2022-11-16T09:14:42.559Z,71.50
2022-11-16T09:17:09.477Z,70.90
2022-11-16T09:19:36.325Z,70.10
2022-11-16T09:22:04.213Z,70.00
2022-11-16T09:24:31.460Z,70.10
2022-11-16T09:27:01.638Z,69.60
2022-11-16T09:29:28.679Z,69.30
2022-11-16T09:31:55.936Z,68.60
2022-11-16T09:34:22.957Z,68.30
2022-11-16T09:36:49.833Z,67.70
2022-11-16T09:39:30.627Z,67.60
2022-11-16T09:42:08.312Z,67.40
2022-11-16T09:45:00.669Z,66.80
2022-11-16T09:47:49.513Z,66.90
2022-11-16T09:50:29.622Z,66.60
2022-11-16T09:53:02.393Z,66.30
2022-11-16T09:55:36.725Z,66.20
2022-11-16T09:58:11.631Z,65.00
2022-11-16T10:00:43.838Z,65.00
2022-11-16T10:03:13.554Z,65.10
2022-11-16T10:05:46.315Z,64.80
2022-11-16T10:08:44.310Z,64.60
2022-11-16T10:11:38.603Z,65.20
2022-11-16T10:14:35.631Z,66.00
2022-11-16T10:17:17.450Z,65.40
2022-11-16T10:20:07.843Z,66.20
2022-11-16T10:22:56.071Z,65.70
2022-11-16T10:25:26.681Z,65.60
2022-11-16T10:28:04.859Z,65.60
2022-11-16T10:30:40.231Z,65.90
2022-11-16T10:33:20.046Z,66.30
2022-11-16T10:35:53.623Z,66.30
2022-11-16T10:38:23.979Z,67.10
2022-11-16T10:40:59.926Z,66.50
2022-11-16T10:43:31.707Z,65.60
2022-11-16T10:46:17.664Z,66.50
2022-11-16T10:49:03.341Z,66.50
2022-11-16T10:51:30.209Z,67.00
2022-11-16T10:53:57.149Z,67.00
2022-11-16T10:56:37.223Z,67.70
2022-11-16T10:59:13.494Z,66.80
2022-11-16T11:01:42.300Z,67.10
2022-11-16T11:04:21.350Z,66.70
2022-11-16T11:07:29.392Z,66.70
2022-11-16T11:09:56.251Z,66.70
2022-11-16T11:12:38.263Z,67.30
2022-11-16T11:15:11.307Z,67.20
2022-11-16T11:17:49.584Z,67.10
2022-11-16T11:20:16.628Z,67.20
2022-11-16T11:22:49.623Z,66.80
2022-11-16T11:25:27.026Z,67.10
2022-11-16T11:28:05.848Z,66.80
2022-11-16T11:30:33.924Z,67.00
2022-11-16T11:33:01.286Z,67.40
2022-11-16T11:35:31.103Z,67.10
2022-11-16T11:38:07.465Z,66.90
2022-11-16T11:40:34.943Z,66.80
2022-11-16T11:43:06.207Z,67.10
2022-11-16T11:45:43.940Z,67.20
2022-11-16T11:48:41.539Z,67.00
2022-11-16T11:51:33.486Z,66.70
2022-11-16T11:54:03.073Z,66.70
2022-11-16T11:56:33.164Z,66.80
2022-11-16T11:59:02.950Z,67.90
2022-11-16T12:01:50.998Z,67.20
2022-11-16T12:04:23.757Z,66.60
2022-11-16T12:07:07.412Z,66.80
2022-11-16T12:09:57.711Z,67.10
2022-11-16T12:12:33.890Z,67.50
2022-11-16T12:15:24.884Z,66.50
2022-11-16T12:18:33.530Z,66.00
2022-11-16T12:21:29.284Z,65.80
2022-11-16T12:24:24.793Z,65.90
2022-11-16T12:27:00.592Z,65.50
2022-11-16T12:29:57.436Z,65.20
2022-11-16T12:32:31.605Z,65.20
2022-11-16T12:35:07.907Z,65.50
2022-11-16T12:37:43.792Z,65.10
2022-11-16T12:40:13.612Z,64.90
2022-11-16T12:43:05.436Z,64.80
2022-11-16T12:45:48.051Z,64.90
2022-11-16T12:48:44.559Z,64.80
2022-11-16T12:51:19.764Z,64.60
2022-11-16T12:53:52.685Z,64.80
2022-11-16T12:56:56.103Z,65.40
2022-11-16T12:59:39.391Z,64.80
2022-11-16T13:02:42.733Z,64.60
2022-11-16T13:05:20.555Z,64.80
2022-11-16T13:07:59.226Z,65.00
2022-11-16T13:10:36.737Z,65.20
2022-11-16T13:13:38.373Z,65.50
2022-11-16T13:16:06.668Z,65.50
2022-11-16T13:18:37.827Z,64.90
2022-11-16T13:21:14.086Z,64.70
2022-11-16T13:23:54.277Z,64.70
2022-11-16T13:26:33.584Z,64.70
2022-11-16T13:29:04.213Z,64.20
2022-11-16T13:31:38.481Z,64.30
2022-11-16T13:34:29.016Z,64.20
2022-11-16T13:36:56.086Z,64.60
2022-11-16T13:39:57.956Z,64.70
2022-11-16T13:42:26.376Z,64.70
2022-11-16T13:44:53.889Z,64.70
2022-11-16T13:47:30.438Z,64.90
2022-11-16T13:50:03.576Z,65.00
2022-11-16T13:53:46.341Z,64.80
2022-11-16T13:55:43.642Z,64.90
2022-11-16T13:58:19.627Z,64.10
2022-11-16T14:00:55.933Z,64.20
2022-11-16T14:03:22.767Z,64.20
2022-11-16T14:05:51.402Z,64.30
2022-11-16T14:08:27.242Z,64.20
2022-11-16T14:10:54.034Z,64.40
2022-11-16T14:13:37.442Z,64.40
2022-11-16T14:16:22.770Z,64.50
2022-11-16T14:18:58.505Z,64.80
2022-11-16T14:21:59.165Z,65.00
2022-11-16T14:24:33.869Z,65.20
2022-11-16T14:27:29.236Z,65.10
2022-11-16T14:30:13.125Z,65.30
2022-11-16T14:32:45.726Z,65.00
2022-11-16T14:35:27.754Z,64.60
2022-11-16T14:38:04.600Z,64.40
2022-11-16T14:40:42.014Z,64.40
2022-11-16T14:43:19.631Z,64.50
2022-11-16T14:45:58.265Z,64.30
2022-11-16T14:48:26.185Z,64.20
2022-11-16T14:51:10.540Z,64.30
2022-11-16T14:53:41.793Z,64.50
2022-11-16T14:56:15.031Z,64.60
2022-11-16T14:58:56.612Z,65.70
2022-11-16T15:01:28.138Z,64.90
2022-11-16T15:04:02.589Z,65.10
2022-11-16T15:06:35.200Z,66.10
2022-11-16T15:09:05.064Z,65.20
2022-11-16T15:11:58.910Z,65.40
2022-11-16T15:14:29.563Z,65.50
2022-11-16T15:16:57.733Z,65.50
2022-11-16T15:19:25.827Z,65.60
2022-11-16T15:22:00.546Z,65.50
2022-11-16T15:24:33.456Z,65.40
2022-11-16T15:27:09.173Z,65.40
2022-11-16T15:29:36.784Z,65.40
2022-11-16T15:32:04.259Z,65.40
2022-11-16T15:34:32.079Z,65.30
2022-11-16T15:36:58.959Z,65.30
2022-11-16T15:39:32.802Z,65.40
2022-11-16T15:42:03.736Z,65.30
2022-11-16T15:44:32.871Z,65.50
2022-11-16T15:47:00.565Z,65.50
2022-11-16T15:49:33.912Z,66.50
2022-11-16T15:52:03.233Z,65.70
2022-11-16T15:54:55.572Z,65.80
2022-11-16T15:57:23.933Z,65.90
2022-11-16T15:59:57.215Z,66.10
2022-11-16T16:02:29.716Z,66.30
2022-11-16T16:04:57.083Z,66.40
2022-11-16T16:07:41.783Z,66.60
2022-11-16T16:10:18.543Z,66.70
2022-11-16T16:12:53.374Z,66.80
2022-11-16T16:15:24.614Z,67.00
2022-11-16T16:17:55.992Z,67.30
2022-11-16T16:20:25.819Z,67.50
2022-11-16T16:22:54.233Z,67.60
2022-11-16T16:25:35.840Z,67.70
2022-11-16T16:28:03.409Z,67.80
2022-11-16T16:30:31.564Z,67.90
2022-11-16T16:32:58.646Z,68.00
2022-11-16T16:35:26.705Z,67.90
2022-11-16T16:38:01.201Z,68.00
2022-11-16T16:40:28.964Z,67.80
2022-11-16T16:42:56.827Z,67.80
2022-11-16T16:45:37.141Z,67.80
2022-11-16T16:48:04.621Z,67.70
2022-11-16T16:50:31.880Z,67.90
2022-11-16T16:52:58.753Z,67.70
2022-11-16T16:55:25.958Z,67.70
2022-11-16T16:57:56.549Z,68.60
2022-11-16T17:00:24.186Z,67.70
2022-11-16T17:02:51.091Z,67.50
2022-11-16T17:05:17.944Z,67.50
2022-11-16T17:07:44.952Z,67.40
2022-11-16T17:10:11.817Z,67.50
2022-11-16T17:12:38.653Z,67.50
2022-11-16T17:15:06.017Z,67.50
2022-11-16T17:17:32.845Z,67.60
2022-11-16T17:20:01.232Z,67.70
2022-11-16T17:22:28.261Z,67.70
2022-11-16T17:24:55.255Z,67.80
2022-11-16T17:27:22.275Z,67.90
2022-11-16T17:29:49.286Z,68.00
2022-11-16T17:32:16.237Z,68.00
2022-11-16T17:34:43.101Z,68.00
2022-11-16T17:37:10.015Z,68.10
2022-11-16T17:39:36.986Z,68.10
2022-11-16T17:42:04.040Z,68.10
2022-11-16T17:44:31.031Z,68.10
2022-11-16T17:46:58.319Z,68.20
2022-11-16T17:49:25.242Z,68.20
2022-11-16T17:51:52.105Z,68.20
2022-11-16T17:54:18.940Z,68.10
2022-11-16T17:56:45.870Z,68.20
2022-11-16T17:59:12.839Z,68.30
2022-11-16T18:01:39.827Z,68.30
2022-11-16T18:04:06.814Z,68.30
2022-11-16T18:06:35.133Z,69.30
2022-11-16T18:09:02.296Z,68.30
2022-11-16T18:11:29.451Z,68.30
2022-11-16T18:13:58.992Z,68.20
2022-11-16T18:16:28.469Z,68.30
2022-11-16T18:19:04.544Z,68.20
2022-11-16T18:21:33.758Z,68.20
2022-11-16T18:24:00.711Z,68.20
2022-11-16T18:26:27.582Z,68.10
2022-11-16T18:28:54.527Z,68.30
2022-11-16T18:31:24.104Z,68.30
2022-11-16T18:33:51.090Z,69.30
2022-11-16T18:36:20.272Z,68.30
2022-11-16T18:38:47.450Z,68.30
2022-11-16T18:41:14.306Z,68.30
2022-11-16T18:43:51.636Z,68.40
2022-11-16T18:46:23.921Z,68.60
2022-11-16T18:48:51.375Z,68.50
2022-11-16T18:51:19.953Z,68.50
2022-11-16T18:53:47.354Z,68.40
2022-11-16T18:56:15.113Z,68.60
2022-11-16T18:58:51.824Z,68.60
2022-11-16T19:01:24.856Z,69.40
2022-11-16T19:03:53.225Z,68.70
2022-11-16T19:06:21.008Z,68.70
2022-11-16T19:08:55.744Z,68.70
2022-11-16T19:11:23.922Z,68.70
2022-11-16T19:14:04.705Z,68.80
2022-11-16T19:16:31.915Z,68.90
2022-11-16T19:18:58.822Z,69.00
2022-11-16T19:21:26.017Z,69.00
2022-11-16T19:23:54.867Z,69.10
2022-11-16T19:26:24.499Z,69.00
2022-11-16T19:28:52.936Z,69.10
2022-11-16T19:31:22.841Z,69.10
2022-11-16T19:33:57.541Z,69.20
2022-11-16T19:36:25.725Z,69.10
2022-11-16T19:38:52.936Z,69.10
2022-11-16T19:41:22.320Z,69.20
2022-11-16T19:43:52.420Z,69.10
2022-11-16T19:46:24.334Z,69.10
2022-11-16T19:48:51.942Z,69.00
2022-11-16T19:51:24.371Z,69.00
2022-11-16T19:53:51.585Z,69.10
2022-11-16T19:56:20.448Z,70.00
2022-11-16T19:58:47.646Z,69.30
2022-11-16T20:01:17.552Z,69.30
2022-11-16T20:03:45.394Z,69.40
2022-11-16T20:06:14.994Z,69.30
2022-11-16T20:08:43.112Z,69.40
2022-11-16T20:11:14.221Z,69.40
2022-11-16T20:13:42.525Z,69.50
2022-11-16T20:16:11.911Z,69.40
2022-11-16T20:18:40.265Z,69.50
2022-11-16T20:21:08.694Z,69.60
2022-11-16T20:23:36.117Z,69.70
2022-11-16T20:26:08.644Z,69.70
2022-11-16T20:28:40.693Z,69.80
2022-11-16T20:31:12.085Z,69.80
2022-11-16T20:33:39.140Z,69.70
2022-11-16T20:36:09.289Z,69.80
2022-11-16T20:38:37.990Z,69.70
2022-11-16T20:41:16.448Z,69.80
2022-11-16T20:43:44.572Z,69.90
2022-11-16T20:46:13.525Z,69.70
2022-11-16T20:48:42.455Z,69.70
2022-11-16T20:51:12.056Z,69.70
2022-11-16T20:53:39.557Z,69.70
2022-11-16T20:56:07.723Z,69.80
2022-11-16T20:58:35.265Z,69.80
2022-11-16T21:01:11.232Z,69.80
2022-11-16T21:03:38.850Z,69.80
2022-11-16T21:06:08.772Z,69.90
2022-11-16T21:08:37.556Z,69.80
2022-11-16T21:11:25.846Z,69.80
2022-11-16T21:14:11.727Z,69.90
2022-11-16T21:16:39.435Z,70.00
2022-11-16T21:19:06.920Z,70.00
2022-11-16T21:21:34.143Z,70.00
2022-11-16T21:24:01.209Z,70.00
2022-11-16T21:26:30.842Z,69.90
2022-11-16T21:28:59.048Z,70.00
2022-11-16T21:31:31.688Z,70.00
2022-11-16T21:34:00.885Z,70.10
2022-11-16T21:36:29.888Z,69.90
2022-11-16T21:38:58.097Z,70.10
2022-11-16T21:41:25.443Z,70.00
2022-11-16T21:43:52.863Z,69.90
2022-11-16T21:46:25.043Z,69.90
2022-11-16T21:48:53.749Z,69.90
2022-11-16T21:51:22.395Z,69.90
2022-11-16T21:53:49.287Z,70.00
2022-11-16T21:56:21.150Z,70.00
2022-11-16T21:58:49.966Z,70.00
2022-11-16T22:01:17.023Z,70.00
2022-11-16T22:03:44.946Z,70.10
2022-11-16T22:06:34.653Z,70.10
2022-11-16T22:09:01.729Z,70.10
2022-11-16T22:11:28.658Z,70.20
2022-11-16T22:13:55.699Z,70.10
2022-11-16T22:16:23.469Z,70.40
2022-11-16T22:18:50.973Z,70.60
2022-11-16T22:21:18.264Z,71.00
2022-11-16T22:23:45.310Z,71.50
2022-11-16T22:26:14.601Z,72.10
2022-11-16T22:28:42.174Z,72.40
2022-11-16T22:31:14.489Z,72.50
2022-11-16T22:33:41.843Z,72.80
2022-11-16T22:36:14.135Z,73.00
2022-11-16T22:38:41.031Z,73.10
2022-11-16T22:41:07.942Z,73.20
2022-11-16T22:43:35.949Z,73.60
2022-11-16T22:46:05.494Z,73.80
2022-11-16T22:48:34.305Z,74.00
2022-11-16T22:51:02.939Z,74.20
2022-11-16T22:53:29.856Z,74.40
2022-11-16T22:56:03.908Z,74.60
2022-11-16T22:58:30.744Z,74.70
2022-11-16T23:00:57.583Z,74.90
2022-11-16T23:03:24.462Z,75.00
2022-11-16T23:05:51.362Z,75.20
2022-11-16T23:08:18.368Z,75.40
2022-11-16T23:11:14.198Z,75.50
2022-11-16T23:13:59.678Z,76.60
2022-11-16T23:16:26.626Z,75.90
2022-11-16T23:18:53.627Z,76.00
2022-11-16T23:21:39.545Z,76.10
2022-11-16T23:24:46.160Z,76.20
2022-11-16T23:27:31.317Z,76.30
2022-11-16T23:30:01.226Z,76.50
2022-11-16T23:32:29.105Z,76.60
2022-11-16T23:34:56.119Z,76.70
2022-11-16T23:37:23.258Z,76.80
2022-11-16T23:39:50.144Z,76.90
2022-11-16T23:42:35.480Z,77.00
2022-11-16T23:45:02.687Z,77.10
2022-11-16T23:47:29.561Z,77.20
2022-11-16T23:49:56.399Z,77.30
2022-11-16T23:52:23.224Z,77.40
2022-11-16T23:54:50.088Z,77.40
2022-11-16T23:57:16.930Z,77.50
2022-11-16T23:59:43.791Z,77.40
